sensor_id;sensor_type;location;lat;lon;timestamp;P1;durP1;ratioP1;P2;durP2;ratioP2
38653;SDS011;24413;52.450;20.706;2023-02-21T00:00:27;4.25;;;1.55;;
38653;SDS011;24413;52.450;20.706;2023-02-21T00:03:11;5.55;;;2.35;;
38653;SDS011;24413;52.450;20.706;2023-02-21T00:05:55;4.43;;;3.28;;
38653;SDS011;24413;52.450;20.706;2023-02-21T00:08:39;4.05;;;3.13;;
38653;SDS011;24413;52.450;20.706;2023-02-21T00:11:23;4.50;;;3.50;;
38653;SDS011;24413;52.450;20.706;2023-02-21T00:14:07;3.38;;;1.88;;
38653;SDS011;24413;52.450;20.706;2023-02-21T00:16:51;5.70;;;1.50;;
38653;SDS011;24413;52.450;20.706;2023-02-21T00:19:35;7.63;;;1.67;;
38653;SDS011;24413;52.450;20.706;2023-02-21T00:22:19;6.20;;;1.60;;
38653;SDS011;24413;52.450;20.706;2023-02-21T00:25:03;14.02;;;3.22;;
38653;SDS011;24413;52.450;20.706;2023-02-21T00:27:47;3.42;;;1.70;;
38653;SDS011;24413;52.450;20.706;2023-02-21T00:30:30;2.85;;;1.58;;
38653;SDS011;24413;52.450;20.706;2023-02-21T00:33:15;7.40;;;2.08;;
38653;SDS011;24413;52.450;20.706;2023-02-21T00:35:59;5.78;;;2.92;;
38653;SDS011;24413;52.450;20.706;2023-02-21T00:38:43;5.88;;;2.92;;
38653;SDS011;24413;52.450;20.706;2023-02-21T00:41:26;5.60;;;3.17;;
38653;SDS011;24413;52.450;20.706;2023-02-21T00:44:10;7.22;;;2.70;;
38653;SDS011;24413;52.450;20.706;2023-02-21T00:46:54;6.60;;;3.20;;
38653;SDS011;24413;52.450;20.706;2023-02-21T00:49:38;3.95;;;3.25;;
38653;SDS011;24413;52.450;20.706;2023-02-21T00:52:22;6.65;;;3.40;;
38653;SDS011;24413;52.450;20.706;2023-02-21T00:55:06;6.53;;;3.65;;
38653;SDS011;24413;52.450;20.706;2023-02-21T00:57:50;5.22;;;2.33;;
38653;SDS011;24413;52.450;20.706;2023-02-21T01:00:34;6.03;;;2.80;;
38653;SDS011;24413;52.450;20.706;2023-02-21T01:03:18;2.65;;;1.98;;
38653;SDS011;24413;52.450;20.706;2023-02-21T01:06:02;3.08;;;1.90;;
38653;SDS011;24413;52.450;20.706;2023-02-21T01:08:46;2.97;;;2.05;;
38653;SDS011;24413;52.450;20.706;2023-02-21T01:11:30;4.47;;;2.17;;
38653;SDS011;24413;52.450;20.706;2023-02-21T01:14:14;4.43;;;2.08;;
38653;SDS011;24413;52.450;20.706;2023-02-21T01:16:58;4.88;;;2.25;;
38653;SDS011;24413;52.450;20.706;2023-02-21T01:19:42;5.45;;;2.10;;
38653;SDS011;24413;52.450;20.706;2023-02-21T01:22:26;3.30;;;1.70;;
38653;SDS011;24413;52.450;20.706;2023-02-21T01:25:10;6.05;;;2.42;;
38653;SDS011;24413;52.450;20.706;2023-02-21T01:27:54;5.30;;;2.03;;
38653;SDS011;24413;52.450;20.706;2023-02-21T01:30:38;12.98;;;1.98;;
38653;SDS011;24413;52.450;20.706;2023-02-21T01:33:22;5.95;;;1.45;;
38653;SDS011;24413;52.450;20.706;2023-02-21T01:36:06;3.92;;;1.67;;
38653;SDS011;24413;52.450;20.706;2023-02-21T01:38:50;5.60;;;1.60;;
38653;SDS011;24413;52.450;20.706;2023-02-21T01:41:34;3.63;;;1.10;;
38653;SDS011;24413;52.450;20.706;2023-02-21T01:47:21;8.38;;;1.63;;
38653;SDS011;24413;52.450;20.706;2023-02-21T01:50:06;6.53;;;3.08;;
38653;SDS011;24413;52.450;20.706;2023-02-21T01:52:51;7.65;;;1.85;;
38653;SDS011;24413;52.450;20.706;2023-02-21T01:55:35;6.45;;;1.80;;
38653;SDS011;24413;52.450;20.706;2023-02-21T01:58:20;6.85;;;1.52;;
38653;SDS011;24413;52.450;20.706;2023-02-21T02:01:06;4.20;;;1.58;;
38653;SDS011;24413;52.450;20.706;2023-02-21T02:03:51;4.70;;;1.48;;
38653;SDS011;24413;52.450;20.706;2023-02-21T02:06:34;13.20;;;1.80;;
38653;SDS011;24413;52.450;20.706;2023-02-21T02:09:19;7.72;;;1.40;;
38653;SDS011;24413;52.450;20.706;2023-02-21T02:27:39;6.50;;;1.75;;
38653;SDS011;24413;52.450;20.706;2023-02-21T02:32:52;7.47;;;2.17;;
38653;SDS011;24413;52.450;20.706;2023-02-21T02:35:29;14.25;;;2.67;;
38653;SDS011;24413;52.450;20.706;2023-02-21T02:40:33;9.27;;;2.35;;
38653;SDS011;24413;52.450;20.706;2023-02-21T02:48:22;11.70;;;2.33;;
38653;SDS011;24413;52.450;20.706;2023-02-21T02:50:51;11.65;;;2.78;;
38653;SDS011;24413;52.450;20.706;2023-02-21T02:53:21;5.47;;;1.90;;
38653;SDS011;24413;52.450;20.706;2023-02-21T02:55:54;6.38;;;1.77;;
38653;SDS011;24413;52.450;20.706;2023-02-21T02:58:20;11.77;;;2.20;;
38653;SDS011;24413;52.450;20.706;2023-02-21T03:00:49;9.98;;;3.17;;
38653;SDS011;24413;52.450;20.706;2023-02-21T03:11:26;7.07;;;2.13;;
38653;SDS011;24413;52.450;20.706;2023-02-21T03:18:47;15.83;;;2.40;;
38653;SDS011;24413;52.450;20.706;2023-02-21T03:21:18;10.50;;;2.50;;
38653;SDS011;24413;52.450;20.706;2023-02-21T03:23:45;15.65;;;2.70;;
38653;SDS011;24413;52.450;20.706;2023-02-21T03:26:12;20.75;;;3.13;;
38653;SDS011;24413;52.450;20.706;2023-02-21T03:28:38;13.63;;;2.75;;
38653;SDS011;24413;52.450;20.706;2023-02-21T03:31:04;8.73;;;2.15;;
38653;SDS011;24413;52.450;20.706;2023-02-21T03:33:31;13.07;;;2.53;;
38653;SDS011;24413;52.450;20.706;2023-02-21T03:36:02;9.23;;;2.10;;
38653;SDS011;24413;52.450;20.706;2023-02-21T03:38:28;6.68;;;2.25;;
38653;SDS011;24413;52.450;20.706;2023-02-21T03:40:53;13.48;;;2.10;;
38653;SDS011;24413;52.450;20.706;2023-02-21T03:43:19;7.03;;;1.95;;
38653;SDS011;24413;52.450;20.706;2023-02-21T03:45:44;11.40;;;2.13;;
38653;SDS011;24413;52.450;20.706;2023-02-21T03:48:09;9.48;;;1.70;;
38653;SDS011;24413;52.450;20.706;2023-02-21T03:50:35;11.23;;;2.20;;
38653;SDS011;24413;52.450;20.706;2023-02-21T03:53:00;9.60;;;2.13;;
38653;SDS011;24413;52.450;20.706;2023-02-21T03:55:25;8.27;;;2.13;;
38653;SDS011;24413;52.450;20.706;2023-02-21T03:57:51;11.48;;;2.53;;
38653;SDS011;24413;52.450;20.706;2023-02-21T04:00:16;7.57;;;2.20;;
38653;SDS011;24413;52.450;20.706;2023-02-21T04:02:41;11.25;;;2.65;;
38653;SDS011;24413;52.450;20.706;2023-02-21T04:05:07;7.43;;;2.00;;
38653;SDS011;24413;52.450;20.706;2023-02-21T04:07:32;16.02;;;2.75;;
38653;SDS011;24413;52.450;20.706;2023-02-21T04:09:57;14.48;;;2.78;;
38653;SDS011;24413;52.450;20.706;2023-02-21T04:12:23;18.13;;;2.72;;
38653;SDS011;24413;52.450;20.706;2023-02-21T04:14:48;13.30;;;2.90;;
38653;SDS011;24413;52.450;20.706;2023-02-21T04:17:14;13.50;;;2.83;;
38653;SDS011;24413;52.450;20.706;2023-02-21T04:19:40;11.30;;;2.42;;
38653;SDS011;24413;52.450;20.706;2023-02-21T04:22:05;12.63;;;3.35;;
38653;SDS011;24413;52.450;20.706;2023-02-21T04:24:30;21.02;;;2.65;;
38653;SDS011;24413;52.450;20.706;2023-02-21T04:26:56;15.20;;;3.40;;
38653;SDS011;24413;52.450;20.706;2023-02-21T04:29:22;18.20;;;3.55;;
38653;SDS011;24413;52.450;20.706;2023-02-21T04:31:47;18.23;;;3.47;;
38653;SDS011;24413;52.450;20.706;2023-02-21T04:34:12;16.55;;;2.60;;
38653;SDS011;24413;52.450;20.706;2023-02-21T04:36:38;12.73;;;2.92;;
38653;SDS011;24413;52.450;20.706;2023-02-21T04:39:04;13.95;;;2.65;;
38653;SDS011;24413;52.450;20.706;2023-02-21T04:41:29;13.73;;;3.10;;
38653;SDS011;24413;52.450;20.706;2023-02-21T04:43:55;21.52;;;3.25;;
38653;SDS011;24413;52.450;20.706;2023-02-21T04:46:20;19.10;;;3.10;;
38653;SDS011;24413;52.450;20.706;2023-02-21T04:48:46;19.55;;;3.58;;
38653;SDS011;24413;52.450;20.706;2023-02-21T04:51:12;11.90;;;2.75;;
38653;SDS011;24413;52.450;20.706;2023-02-21T04:53:37;14.52;;;3.13;;
38653;SDS011;24413;52.450;20.706;2023-02-21T04:56:03;20.77;;;4.65;;
38653;SDS011;24413;52.450;20.706;2023-02-21T04:58:28;13.32;;;3.05;;
38653;SDS011;24413;52.450;20.706;2023-02-21T05:00:53;9.80;;;2.60;;
38653;SDS011;24413;52.450;20.706;2023-02-21T05:03:19;14.68;;;3.00;;
38653;SDS011;24413;52.450;20.706;2023-02-21T05:05:44;17.88;;;3.72;;
38653;SDS011;24413;52.450;20.706;2023-02-21T05:08:09;15.13;;;3.72;;
38653;SDS011;24413;52.450;20.706;2023-02-21T05:10:35;18.80;;;4.05;;
38653;SDS011;24413;52.450;20.706;2023-02-21T05:13:00;20.02;;;4.00;;
38653;SDS011;24413;52.450;20.706;2023-02-21T05:15:25;11.90;;;4.03;;
38653;SDS011;24413;52.450;20.706;2023-02-21T05:17:50;18.75;;;3.95;;
38653;SDS011;24413;52.450;20.706;2023-02-21T05:20:16;13.98;;;3.30;;
38653;SDS011;24413;52.450;20.706;2023-02-21T05:22:41;8.90;;;2.72;;
38653;SDS011;24413;52.450;20.706;2023-02-21T05:25:08;15.43;;;3.20;;
38653;SDS011;24413;52.450;20.706;2023-02-21T05:27:38;13.80;;;2.72;;
38653;SDS011;24413;52.450;20.706;2023-02-21T05:30:03;21.20;;;3.17;;
38653;SDS011;24413;52.450;20.706;2023-02-21T05:32:28;17.45;;;5.88;;
38653;SDS011;24413;52.450;20.706;2023-02-21T05:34:54;17.70;;;5.35;;
38653;SDS011;24413;52.450;20.706;2023-02-21T05:37:19;17.70;;;3.33;;
38653;SDS011;24413;52.450;20.706;2023-02-21T05:39:45;14.82;;;5.80;;
38653;SDS011;24413;52.450;20.706;2023-02-21T05:42:11;16.27;;;3.72;;
38653;SDS011;24413;52.450;20.706;2023-02-21T05:44:36;21.20;;;4.65;;
38653;SDS011;24413;52.450;20.706;2023-02-21T05:47:01;15.93;;;4.50;;
38653;SDS011;24413;52.450;20.706;2023-02-21T05:49:27;13.02;;;3.45;;
38653;SDS011;24413;52.450;20.706;2023-02-21T05:51:52;18.60;;;5.53;;
38653;SDS011;24413;52.450;20.706;2023-02-21T05:54:18;9.95;;;3.78;;
38653;SDS011;24413;52.450;20.706;2023-02-21T05:56:44;13.32;;;3.65;;
38653;SDS011;24413;52.450;20.706;2023-02-21T05:59:10;14.63;;;3.83;;
38653;SDS011;24413;52.450;20.706;2023-02-21T06:01:36;15.18;;;3.83;;
38653;SDS011;24413;52.450;20.706;2023-02-21T06:04:01;15.30;;;3.47;;
38653;SDS011;24413;52.450;20.706;2023-02-21T06:06:26;14.95;;;3.58;;
38653;SDS011;24413;52.450;20.706;2023-02-21T06:08:51;15.55;;;3.97;;
38653;SDS011;24413;52.450;20.706;2023-02-21T06:11:27;23.70;;;4.63;;
38653;SDS011;24413;52.450;20.706;2023-02-21T06:13:53;11.15;;;3.53;;
38653;SDS011;24413;52.450;20.706;2023-02-21T06:16:19;18.02;;;4.20;;
38653;SDS011;24413;52.450;20.706;2023-02-21T06:18:44;18.65;;;4.57;;
38653;SDS011;24413;52.450;20.706;2023-02-21T06:21:09;21.63;;;4.47;;
38653;SDS011;24413;52.450;20.706;2023-02-21T06:23:34;18.15;;;4.43;;
38653;SDS011;24413;52.450;20.706;2023-02-21T06:26:00;21.08;;;5.95;;
38653;SDS011;24413;52.450;20.706;2023-02-21T06:28:29;11.63;;;3.40;;
38653;SDS011;24413;52.450;20.706;2023-02-21T06:30:54;16.90;;;4.38;;
38653;SDS011;24413;52.450;20.706;2023-02-21T06:33:20;31.30;;;6.55;;
38653;SDS011;24413;52.450;20.706;2023-02-21T06:35:45;18.75;;;4.55;;
38653;SDS011;24413;52.450;20.706;2023-02-21T06:38:10;17.98;;;4.63;;
38653;SDS011;24413;52.450;20.706;2023-02-21T06:40:35;13.23;;;3.28;;
38653;SDS011;24413;52.450;20.706;2023-02-21T06:43:01;15.30;;;3.42;;
38653;SDS011;24413;52.450;20.706;2023-02-21T06:45:26;20.30;;;6.85;;
38653;SDS011;24413;52.450;20.706;2023-02-21T06:47:51;19.75;;;4.13;;
38653;SDS011;24413;52.450;20.706;2023-02-21T06:50:16;18.23;;;4.50;;
38653;SDS011;24413;52.450;20.706;2023-02-21T06:52:42;17.67;;;3.85;;
38653;SDS011;24413;52.450;20.706;2023-02-21T06:55:07;18.75;;;3.28;;
38653;SDS011;24413;52.450;20.706;2023-02-21T06:57:32;17.73;;;3.58;;
38653;SDS011;24413;52.450;20.706;2023-02-21T06:59:58;19.55;;;6.15;;
38653;SDS011;24413;52.450;20.706;2023-02-21T07:02:23;18.13;;;5.05;;
38653;SDS011;24413;52.450;20.706;2023-02-21T07:04:49;31.05;;;9.57;;
38653;SDS011;24413;52.450;20.706;2023-02-21T07:07:14;17.50;;;4.53;;
38653;SDS011;24413;52.450;20.706;2023-02-21T07:09:39;35.08;;;12.05;;
38653;SDS011;24413;52.450;20.706;2023-02-21T07:12:05;18.88;;;4.40;;
38653;SDS011;24413;52.450;20.706;2023-02-21T07:14:30;35.45;;;9.40;;
38653;SDS011;24413;52.450;20.706;2023-02-21T07:16:55;29.83;;;9.10;;
38653;SDS011;24413;52.450;20.706;2023-02-21T07:19:21;24.42;;;5.78;;
38653;SDS011;24413;52.450;20.706;2023-02-21T07:21:46;26.38;;;6.30;;
38653;SDS011;24413;52.450;20.706;2023-02-21T07:24:11;17.60;;;5.22;;
38653;SDS011;24413;52.450;20.706;2023-02-21T07:26:37;20.02;;;6.65;;
38653;SDS011;24413;52.450;20.706;2023-02-21T07:29:03;24.17;;;6.20;;
38653;SDS011;24413;52.450;20.706;2023-02-21T07:31:28;61.67;;;25.83;;
38653;SDS011;24413;52.450;20.706;2023-02-21T07:33:54;50.80;;;18.75;;
38653;SDS011;24413;52.450;20.706;2023-02-21T07:36:19;20.15;;;7.75;;
38653;SDS011;24413;52.450;20.706;2023-02-21T07:38:44;24.77;;;6.10;;
38653;SDS011;24413;52.450;20.706;2023-02-21T07:41:09;26.50;;;6.95;;
38653;SDS011;24413;52.450;20.706;2023-02-21T07:43:35;23.92;;;5.45;;
38653;SDS011;24413;52.450;20.706;2023-02-21T07:46:00;21.23;;;6.22;;
38653;SDS011;24413;52.450;20.706;2023-02-21T07:48:25;24.92;;;6.53;;
38653;SDS011;24413;52.450;20.706;2023-02-21T07:50:51;22.63;;;5.28;;
38653;SDS011;24413;52.450;20.706;2023-02-21T07:53:16;31.52;;;7.78;;
38653;SDS011;24413;52.450;20.706;2023-02-21T07:55:42;21.02;;;7.65;;
38653;SDS011;24413;52.450;20.706;2023-02-21T07:58:07;28.45;;;8.25;;
38653;SDS011;24413;52.450;20.706;2023-02-21T08:00:33;30.33;;;6.22;;
38653;SDS011;24413;52.450;20.706;2023-02-21T08:02:58;19.08;;;6.38;;
38653;SDS011;24413;52.450;20.706;2023-02-21T08:05:24;25.30;;;5.72;;
38653;SDS011;24413;52.450;20.706;2023-02-21T08:07:49;26.05;;;7.85;;
38653;SDS011;24413;52.450;20.706;2023-02-21T08:10:19;22.48;;;5.20;;
38653;SDS011;24413;52.450;20.706;2023-02-21T08:12:44;20.88;;;6.50;;
38653;SDS011;24413;52.450;20.706;2023-02-21T08:15:10;82.55;;;30.80;;
38653;SDS011;24413;52.450;20.706;2023-02-21T08:17:35;25.95;;;8.60;;
38653;SDS011;24413;52.450;20.706;2023-02-21T08:20:00;36.28;;;14.27;;
38653;SDS011;24413;52.450;20.706;2023-02-21T08:22:26;23.30;;;7.15;;
38653;SDS011;24413;52.450;20.706;2023-02-21T08:24:51;22.25;;;5.78;;
38653;SDS011;24413;52.450;20.706;2023-02-21T08:27:16;22.10;;;5.25;;
38653;SDS011;24413;52.450;20.706;2023-02-21T08:29:42;28.58;;;8.43;;
38653;SDS011;24413;52.450;20.706;2023-02-21T08:32:07;23.00;;;8.38;;
38653;SDS011;24413;52.450;20.706;2023-02-21T08:34:33;27.63;;;8.88;;
38653;SDS011;24413;52.450;20.706;2023-02-21T08:36:58;61.67;;;24.50;;
38653;SDS011;24413;52.450;20.706;2023-02-21T08:39:23;18.50;;;7.57;;
38653;SDS011;24413;52.450;20.706;2023-02-21T08:41:48;35.50;;;10.52;;
38653;SDS011;24413;52.450;20.706;2023-02-21T08:44:16;31.25;;;8.25;;
38653;SDS011;24413;52.450;20.706;2023-02-21T08:46:41;16.98;;;5.20;;
38653;SDS011;24413;52.450;20.706;2023-02-21T08:49:07;44.08;;;13.70;;
38653;SDS011;24413;52.450;20.706;2023-02-21T08:51:33;30.35;;;7.85;;
38653;SDS011;24413;52.450;20.706;2023-02-21T08:54:00;62.08;;;23.20;;
38653;SDS011;24413;52.450;20.706;2023-02-21T08:56:26;26.73;;;6.03;;
38653;SDS011;24413;52.450;20.706;2023-02-21T08:58:51;22.05;;;5.35;;
38653;SDS011;24413;52.450;20.706;2023-02-21T09:01:18;25.17;;;7.78;;
38653;SDS011;24413;52.450;20.706;2023-02-21T09:03:43;24.80;;;6.68;;
38653;SDS011;24413;52.450;20.706;2023-02-21T09:06:09;16.85;;;4.85;;
38653;SDS011;24413;52.450;20.706;2023-02-21T09:08:34;23.58;;;5.47;;
38653;SDS011;24413;52.450;20.706;2023-02-21T09:11:03;19.40;;;4.95;;
38653;SDS011;24413;52.450;20.706;2023-02-21T09:13:28;24.63;;;5.13;;
38653;SDS011;24413;52.450;20.706;2023-02-21T09:15:54;29.63;;;9.70;;
38653;SDS011;24413;52.450;20.706;2023-02-21T09:18:20;20.88;;;5.90;;
38653;SDS011;24413;52.450;20.706;2023-02-21T09:20:45;36.15;;;10.52;;
38653;SDS011;24413;52.450;20.706;2023-02-21T09:23:17;16.23;;;4.72;;
38653;SDS011;24413;52.450;20.706;2023-02-21T09:25:44;31.95;;;10.02;;
38653;SDS011;24413;52.450;20.706;2023-02-21T09:28:09;14.52;;;3.90;;
38653;SDS011;24413;52.450;20.706;2023-02-21T09:30:35;21.55;;;5.25;;
38653;SDS011;24413;52.450;20.706;2023-02-21T09:33:00;18.65;;;4.65;;
38653;SDS011;24413;52.450;20.706;2023-02-21T09:35:25;19.77;;;5.65;;
38653;SDS011;24413;52.450;20.706;2023-02-21T09:37:50;18.38;;;4.53;;
38653;SDS011;24413;52.450;20.706;2023-02-21T09:45:51;43.42;;;15.68;;
38653;SDS011;24413;52.450;20.706;2023-02-21T09:48:18;21.83;;;5.28;;
38653;SDS011;24413;52.450;20.706;2023-02-21T09:50:47;24.05;;;6.63;;
38653;SDS011;24413;52.450;20.706;2023-02-21T09:53:15;25.63;;;8.50;;
38653;SDS011;24413;52.450;20.706;2023-02-21T09:55:41;19.00;;;6.00;;
38653;SDS011;24413;52.450;20.706;2023-02-21T09:58:14;23.05;;;6.25;;
38653;SDS011;24413;52.450;20.706;2023-02-21T10:00:39;15.00;;;4.38;;
38653;SDS011;24413;52.450;20.706;2023-02-21T10:03:09;23.85;;;6.07;;
38653;SDS011;24413;52.450;20.706;2023-02-21T10:05:45;37.53;;;12.10;;
38653;SDS011;24413;52.450;20.706;2023-02-21T10:08:21;14.80;;;4.80;;
38653;SDS011;24413;52.450;20.706;2023-02-21T10:10:57;20.58;;;5.15;;
38653;SDS011;24413;52.450;20.706;2023-02-21T10:15:49;14.73;;;4.95;;
38653;SDS011;24413;52.450;20.706;2023-02-21T10:18:22;24.33;;;5.93;;
38653;SDS011;24413;52.450;20.706;2023-02-21T10:26:04;15.80;;;4.67;;
38653;SDS011;24413;52.450;20.706;2023-02-21T10:28:33;22.05;;;4.57;;
38653;SDS011;24413;52.450;20.706;2023-02-21T10:31:00;23.00;;;8.13;;
38653;SDS011;24413;52.450;20.706;2023-02-21T10:33:27;18.75;;;6.45;;
38653;SDS011;24413;52.450;20.706;2023-02-21T10:35:53;11.40;;;3.25;;
38653;SDS011;24413;52.450;20.706;2023-02-21T10:38:19;14.05;;;4.50;;
38653;SDS011;24413;52.450;20.706;2023-02-21T10:40:50;21.88;;;5.45;;
38653;SDS011;24413;52.450;20.706;2023-02-21T10:43:34;21.45;;;5.32;;
38653;SDS011;24413;52.450;20.706;2023-02-21T10:46:19;25.58;;;9.57;;
38653;SDS011;24413;52.450;20.706;2023-02-21T10:48:46;27.77;;;9.23;;
38653;SDS011;24413;52.450;20.706;2023-02-21T10:51:16;26.88;;;7.82;;
38653;SDS011;24413;52.450;20.706;2023-02-21T10:53:42;25.15;;;6.57;;
38653;SDS011;24413;52.450;20.706;2023-02-21T10:56:19;19.33;;;5.53;;
38653;SDS011;24413;52.450;20.706;2023-02-21T10:58:45;17.17;;;4.35;;
38653;SDS011;24413;52.450;20.706;2023-02-21T11:01:13;16.83;;;4.10;;
38653;SDS011;24413;52.450;20.706;2023-02-21T11:03:45;14.75;;;3.90;;
38653;SDS011;24413;52.450;20.706;2023-02-21T11:06:20;14.27;;;3.55;;
38653;SDS011;24413;52.450;20.706;2023-02-21T11:08:46;15.25;;;4.28;;
38653;SDS011;24413;52.450;20.706;2023-02-21T11:11:11;12.82;;;4.05;;
38653;SDS011;24413;52.450;20.706;2023-02-21T11:13:36;19.38;;;5.70;;
38653;SDS011;24413;52.450;20.706;2023-02-21T11:18:37;16.90;;;3.55;;
38653;SDS011;24413;52.450;20.706;2023-02-21T11:21:10;25.70;;;5.75;;
38653;SDS011;24413;52.450;20.706;2023-02-21T11:23:36;19.25;;;4.55;;
38653;SDS011;24413;52.450;20.706;2023-02-21T11:26:06;16.75;;;4.30;;
38653;SDS011;24413;52.450;20.706;2023-02-21T11:28:40;10.93;;;3.28;;
38653;SDS011;24413;52.450;20.706;2023-02-21T11:33:35;26.45;;;5.30;;
38653;SDS011;24413;52.450;20.706;2023-02-21T11:36:09;19.48;;;4.47;;
38653;SDS011;24413;52.450;20.706;2023-02-21T11:38:39;17.33;;;5.10;;
38653;SDS011;24413;52.450;20.706;2023-02-21T11:43:44;19.55;;;4.55;;
38653;SDS011;24413;52.450;20.706;2023-02-21T11:51:25;19.60;;;5.13;;
38653;SDS011;24413;52.450;20.706;2023-02-21T11:53:50;17.15;;;5.18;;
38653;SDS011;24413;52.450;20.706;2023-02-21T11:56:19;23.88;;;6.15;;
38653;SDS011;24413;52.450;20.706;2023-02-21T12:04:48;19.98;;;6.15;;
38653;SDS011;24413;52.450;20.706;2023-02-21T12:10:08;20.60;;;4.60;;
38653;SDS011;24413;52.450;20.706;2023-02-21T12:13:21;23.10;;;5.32;;
38653;SDS011;24413;52.450;20.706;2023-02-21T12:18:09;20.27;;;5.05;;
38653;SDS011;24413;52.450;20.706;2023-02-21T12:20:49;23.08;;;5.57;;
38653;SDS011;24413;52.450;20.706;2023-02-21T12:28:32;22.75;;;4.85;;
38653;SDS011;24413;52.450;20.706;2023-02-21T12:48:24;12.27;;;3.50;;
38653;SDS011;24413;52.450;20.706;2023-02-21T12:50:56;15.75;;;4.30;;
38653;SDS011;24413;52.450;20.706;2023-02-21T12:53:57;17.95;;;4.32;;
38653;SDS011;24413;52.450;20.706;2023-02-21T13:01:14;19.25;;;5.78;;
38653;SDS011;24413;52.450;20.706;2023-02-21T13:03:51;19.50;;;5.20;;
38653;SDS011;24413;52.450;20.706;2023-02-21T13:08:50;17.98;;;4.25;;
38653;SDS011;24413;52.450;20.706;2023-02-21T13:11:21;20.63;;;8.90;;
38653;SDS011;24413;52.450;20.706;2023-02-21T13:13:46;19.90;;;3.85;;
38653;SDS011;24413;52.450;20.706;2023-02-21T13:16:12;15.93;;;4.18;;
38653;SDS011;24413;52.450;20.706;2023-02-21T13:18:39;19.70;;;4.10;;
38653;SDS011;24413;52.450;20.706;2023-02-21T13:23:47;20.13;;;4.40;;
38653;SDS011;24413;52.450;20.706;2023-02-21T13:26:18;14.35;;;4.28;;
38653;SDS011;24413;52.450;20.706;2023-02-21T13:28:45;15.00;;;3.88;;
38653;SDS011;24413;52.450;20.706;2023-02-21T13:31:19;28.42;;;12.63;;
38653;SDS011;24413;52.450;20.706;2023-02-21T13:34:28;16.80;;;3.75;;
38653;SDS011;24413;52.450;20.706;2023-02-21T13:41:37;28.42;;;14.55;;
38653;SDS011;24413;52.450;20.706;2023-02-21T13:44:07;31.35;;;6.47;;
38653;SDS011;24413;52.450;20.706;2023-02-21T13:51:47;29.13;;;9.38;;
38653;SDS011;24413;52.450;20.706;2023-02-21T13:54:13;25.50;;;7.28;;
38653;SDS011;24413;52.450;20.706;2023-02-21T13:56:47;33.97;;;9.73;;
38653;SDS011;24413;52.450;20.706;2023-02-21T14:01:49;29.70;;;7.53;;
38653;SDS011;24413;52.450;20.706;2023-02-21T14:07:36;22.13;;;5.73;;
38653;SDS011;24413;52.450;20.706;2023-02-21T14:10:03;21.55;;;5.90;;
38653;SDS011;24413;52.450;20.706;2023-02-21T14:12:28;22.73;;;4.95;;
38653;SDS011;24413;52.450;20.706;2023-02-21T14:15:02;25.02;;;5.13;;
38653;SDS011;24413;52.450;20.706;2023-02-21T14:17:30;27.33;;;5.53;;
38653;SDS011;24413;52.450;20.706;2023-02-21T14:19:56;33.42;;;5.72;;
38653;SDS011;24413;52.450;20.706;2023-02-21T14:22:25;22.15;;;5.35;;
38653;SDS011;24413;52.450;20.706;2023-02-21T14:24:51;86.60;;;31.85;;
38653;SDS011;24413;52.450;20.706;2023-02-21T14:32:36;26.25;;;7.32;;
38653;SDS011;24413;52.450;20.706;2023-02-21T14:40:42;31.35;;;6.93;;
38653;SDS011;24413;52.450;20.706;2023-02-21T14:48:45;31.80;;;7.23;;
38653;SDS011;24413;52.450;20.706;2023-02-21T14:58:52;36.88;;;11.15;;
38653;SDS011;24413;52.450;20.706;2023-02-21T15:04:29;34.33;;;7.25;;
38653;SDS011;24413;52.450;20.706;2023-02-21T15:06:42;35.92;;;7.32;;
38653;SDS011;24413;52.450;20.706;2023-02-21T15:09:12;33.83;;;12.65;;
38653;SDS011;24413;52.450;20.706;2023-02-21T15:11:37;27.67;;;7.63;;
38653;SDS011;24413;52.450;20.706;2023-02-21T15:14:22;44.72;;;10.43;;
38653;SDS011;24413;52.450;20.706;2023-02-21T15:16:58;29.02;;;7.55;;
38653;SDS011;24413;52.450;20.706;2023-02-21T15:19:31;29.13;;;8.13;;
38653;SDS011;24413;52.450;20.706;2023-02-21T15:22:13;34.13;;;6.97;;
38653;SDS011;24413;52.450;20.706;2023-02-21T15:24:39;39.13;;;7.88;;
38653;SDS011;24413;52.450;20.706;2023-02-21T15:27:12;33.38;;;6.82;;
38653;SDS011;24413;52.450;20.706;2023-02-21T15:29:38;33.97;;;8.30;;
38653;SDS011;24413;52.450;20.706;2023-02-21T15:32:04;29.95;;;7.25;;
38653;SDS011;24413;52.450;20.706;2023-02-21T15:34:38;45.80;;;11.98;;
38653;SDS011;24413;52.450;20.706;2023-02-21T15:39:33;35.80;;;11.10;;
38653;SDS011;24413;52.450;20.706;2023-02-21T15:42:00;37.95;;;10.25;;
38653;SDS011;24413;52.450;20.706;2023-02-21T15:44:30;40.88;;;17.35;;
38653;SDS011;24413;52.450;20.706;2023-02-21T15:47:00;39.30;;;12.32;;
38653;SDS011;24413;52.450;20.706;2023-02-21T15:49:30;138.02;;;62.10;;
38653;SDS011;24413;52.450;20.706;2023-02-21T15:51:57;89.70;;;35.65;;
38653;SDS011;24413;52.450;20.706;2023-02-21T15:54:23;93.35;;;42.83;;
38653;SDS011;24413;52.450;20.706;2023-02-21T15:57:03;79.47;;;32.50;;
38653;SDS011;24413;52.450;20.706;2023-02-21T15:59:28;105.40;;;47.03;;
38653;SDS011;24413;52.450;20.706;2023-02-21T16:04:36;89.72;;;30.25;;
38653;SDS011;24413;52.450;20.706;2023-02-21T16:07:01;75.15;;;27.10;;
38653;SDS011;24413;52.450;20.706;2023-02-21T16:09:28;50.80;;;17.60;;
38653;SDS011;24413;52.450;20.706;2023-02-21T16:11:55;65.50;;;22.83;;
38653;SDS011;24413;52.450;20.706;2023-02-21T16:16:47;41.80;;;13.55;;
38653;SDS011;24413;52.450;20.706;2023-02-21T16:19:18;37.40;;;9.68;;
38653;SDS011;24413;52.450;20.706;2023-02-21T16:21:43;47.13;;;13.65;;
38653;SDS011;24413;52.450;20.706;2023-02-21T16:27:15;41.03;;;13.63;;
38653;SDS011;24413;52.450;20.706;2023-02-21T16:29:41;26.08;;;9.95;;
38653;SDS011;24413;52.450;20.706;2023-02-21T16:32:13;41.25;;;12.50;;
38653;SDS011;24413;52.450;20.706;2023-02-21T16:34:39;52.38;;;14.10;;
38653;SDS011;24413;52.450;20.706;2023-02-21T16:37:05;38.25;;;10.85;;
38653;SDS011;24413;52.450;20.706;2023-02-21T16:39:34;41.22;;;9.95;;
38653;SDS011;24413;52.450;20.706;2023-02-21T16:41:59;32.85;;;10.43;;
38653;SDS011;24413;52.450;20.706;2023-02-21T16:44:24;36.47;;;9.63;;
38653;SDS011;24413;52.450;20.706;2023-02-21T16:46:50;35.47;;;11.98;;
38653;SDS011;24413;52.450;20.706;2023-02-21T16:49:15;49.90;;;12.98;;
38653;SDS011;24413;52.450;20.706;2023-02-21T16:51:41;26.63;;;7.10;;
38653;SDS011;24413;52.450;20.706;2023-02-21T16:54:07;39.70;;;14.05;;
38653;SDS011;24413;52.450;20.706;2023-02-21T16:56:33;24.27;;;6.68;;
38653;SDS011;24413;52.450;20.706;2023-02-21T16:58:59;36.47;;;7.22;;
38653;SDS011;24413;52.450;20.706;2023-02-21T17:01:26;26.13;;;6.88;;
38653;SDS011;24413;52.450;20.706;2023-02-21T17:03:51;31.90;;;7.93;;
38653;SDS011;24413;52.450;20.706;2023-02-21T17:06:20;24.58;;;7.85;;
38653;SDS011;24413;52.450;20.706;2023-02-21T17:08:46;28.38;;;5.85;;
38653;SDS011;24413;52.450;20.706;2023-02-21T17:11:12;22.90;;;6.28;;
38653;SDS011;24413;52.450;20.706;2023-02-21T17:13:37;29.67;;;6.78;;
38653;SDS011;24413;52.450;20.706;2023-02-21T17:16:02;30.63;;;7.20;;
38653;SDS011;24413;52.450;20.706;2023-02-21T17:18:28;36.25;;;11.40;;
38653;SDS011;24413;52.450;20.706;2023-02-21T17:20:55;35.15;;;13.52;;